Time,TemperatureF,DewpointF,PressureIn,WindDirection,WindDirectionDegrees,WindSpeedMPH,WindSpeedGustMPH,Humidity,HourlyPrecipIn,Conditions,Clouds,dailyrainin,SoftwareType,DateUTC
2013-02-22 00:00:00,23.0,15.3,30.13,NW,315,0.0,3.0,72,0.00,,---,0.00,VWS V14.01,2013-02-22 04:00:00,
2013-02-22 00:30:00,23.3,15.9,30.17,West,270,1.0,7.0,73,0.00,,---,0.00,VWS V14.01,2013-02-22 04:30:00,
2013-02-22 01:00:00,23.5,16.1,30.18,WSW,248,1.0,7.0,73,0.00,,---,0.00,VWS V14.01,2013-02-22 05:00:00,
2013-02-22 01:30:00,23.6,16.2,30.20,West,270,2.0,8.0,73,0.00,,---,0.00,VWS V14.01,2013-02-22 05:30:00,
2013-02-22 02:00:00,23.8,16.7,30.23,West,270,2.0,8.0,74,0.00,,---,0.00,VWS V14.01,2013-02-22 06:00:00,
2013-02-22 02:30:00,23.8,17.0,30.24,West,270,2.0,7.0,75,0.00,,---,0.00,VWS V14.01,2013-02-22 06:30:00,
2013-02-22 03:00:00,23.7,17.3,30.23,WNW,292,2.0,6.0,76,0.00,,---,0.00,VWS V14.01,2013-02-22 07:00:00,
2013-02-22 03:30:00,23.3,17.2,30.23,WSW,248,0.0,4.0,77,0.00,,---,0.00,VWS V14.01,2013-02-22 07:30:00,
2013-02-22 04:00:00,23.1,17.3,30.24,WSW,248,0.0,5.0,78,0.00,,---,0.00,VWS V14.01,2013-02-22 08:00:00,
2013-02-22 04:30:00,23.6,17.8,30.25,WSW,248,1.0,4.0,78,0.00,,---,0.00,VWS V14.01,2013-02-22 08:30:00,
2013-02-22 05:00:00,23.3,17.8,30.26,West,270,0.0,4.0,79,0.00,,---,0.00,VWS V14.01,2013-02-22 09:00:00,
2013-02-22 05:30:00,22.8,17.6,30.27,West,270,0.0,5.0,80,0.00,,---,0.00,VWS V14.01,2013-02-22 09:30:00,
2013-02-22 06:00:00,21.3,16.4,30.28,West,270,0.0,0.0,81,0.00,,---,0.00,VWS V14.01,2013-02-22 10:00:00,
2013-02-22 06:30:00,19.7,15.7,30.28,West,270,0.0,0.0,84,0.00,,---,0.00,VWS V14.01,2013-02-22 10:30:00,
2013-02-22 07:00:00,18.1,14.4,30.30,West,270,0.0,0.0,85,0.00,,---,0.00,VWS V14.01,2013-02-22 11:00:00,
2013-02-22 07:30:00,17.4,14.2,30.32,West,270,0.0,0.0,87,0.00,,---,0.00,VWS V14.01,2013-02-22 11:30:00,
2013-02-22 08:00:00,18.1,15.4,30.37,West,270,0.0,2.0,89,0.00,,---,0.00,VWS V14.01,2013-02-22 12:00:00,
2013-02-22 08:30:00,22.2,18.1,30.37,WSW,248,0.0,5.0,84,0.00,,---,0.00,VWS V14.01,2013-02-22 12:30:00,
2013-02-22 09:00:00,24.3,19.3,30.38,WSW,248,0.0,4.0,81,0.00,,---,0.00,VWS V14.01,2013-02-22 13:00:00,
2013-02-22 09:30:00,28.5,21.0,30.38,North,0,0.0,5.0,73,0.00,,---,0.00,VWS V14.01,2013-02-22 13:30:00,
2013-02-22 10:00:00,31.6,21.6,30.37,NW,315,1.0,7.0,66,0.00,,---,0.00,VWS V14.01,2013-02-22 14:00:00,
2013-02-22 10:30:00,33.7,21.7,30.37,NNE,22,2.0,9.0,61,0.00,,---,0.00,VWS V14.01,2013-02-22 14:30:00,
2013-02-22 11:00:00,34.3,21.1,30.36,North,0,2.0,6.0,58,0.00,,---,0.00,VWS V14.01,2013-02-22 15:00:00,
2013-02-22 11:30:00,36.1,21.5,30.36,North,0,2.0,7.0,55,0.00,,---,0.00,VWS V14.01,2013-02-22 15:30:00,
2013-02-22 12:00:00,38.6,22.0,30.36,NNE,22,1.0,5.0,51,0.00,,---,0.00,VWS V14.01,2013-02-22 16:00:00,
2013-02-22 12:30:00,39.5,21.5,30.35,NNW,338,1.0,8.0,48,0.00,,---,0.00,VWS V14.01,2013-02-22 16:30:00,
2013-02-22 13:00:00,39.8,21.7,30.34,NNE,22,1.0,6.0,48,0.00,,---,0.00,VWS V14.01,2013-02-22 17:00:00,
2013-02-22 13:30:00,41.3,21.6,30.33,North,0,1.0,6.0,45,0.00,,---,0.00,VWS V14.01,2013-02-22 17:30:00,
2013-02-22 14:00:00,39.8,21.2,30.33,North,0,1.0,4.0,47,0.00,,---,0.00,VWS V14.01,2013-02-22 18:00:00,
2013-02-22 14:30:00,39.5,19.9,30.33,NNW,338,1.0,5.0,45,0.00,,---,0.00,VWS V14.01,2013-02-22 18:30:00,
2013-02-22 15:00:00,40.3,22.7,30.33,East,90,0.0,4.0,49,0.00,,---,0.00,VWS V14.01,2013-02-22 19:00:00,
2013-02-22 15:30:00,40.8,21.1,30.32,NE,45,1.0,4.0,45,0.00,,---,0.00,VWS V14.01,2013-02-22 19:30:00,
2013-02-22 16:00:00,40.3,22.2,30.32,North,0,1.0,4.0,48,0.00,,---,0.00,VWS V14.01,2013-02-22 20:00:00,
2013-02-22 16:30:00,39.6,22.0,30.32,ESE,112,0.0,4.0,49,0.00,,---,0.00,VWS V14.01,2013-02-22 20:30:00,
2013-02-22 17:00:00,39.3,20.8,30.33,East,90,0.0,4.0,47,0.00,,---,0.00,VWS V14.01,2013-02-22 21:00:00,
2013-02-22 17:30:00,37.5,23.2,30.31,ESE,112,0.0,4.0,56,0.00,,---,0.00,VWS V14.01,2013-02-22 21:30:00,
2013-02-22 18:00:00,36.0,23.9,30.31,SE,135,1.0,4.0,61,0.00,,---,0.00,VWS V14.01,2013-02-22 22:00:00,
2013-02-22 18:30:00,34.8,23.5,30.32,ESE,112,0.0,4.0,63,0.00,,---,0.00,VWS V14.01,2013-02-22 22:30:00,
2013-02-22 19:00:00,33.2,23.5,30.32,ESE,112,0.0,0.0,67,0.00,,---,0.00,VWS V14.01,2013-02-22 23:00:00,
2013-02-22 19:30:00,32.1,24.1,30.33,ESE,112,0.0,0.0,72,0.00,,---,0.00,VWS V14.01,2013-02-22 23:30:00,
2013-02-22 20:00:00,31.5,24.5,30.33,ESE,112,0.0,0.0,75,0.00,,---,0.00,VWS V14.01,2013-02-23 00:00:00,
2013-02-22 20:30:00,30.5,23.9,30.33,ESE,112,0.0,0.0,76,0.00,,---,0.00,VWS V14.01,2013-02-23 00:30:00,
2013-02-22 21:00:00,30.3,24.3,30.33,ESE,112,0.0,0.0,78,0.00,,---,0.00,VWS V14.01,2013-02-23 01:00:00,
2013-02-22 21:30:00,30.3,24.9,30.34,ESE,112,0.0,0.0,80,0.00,,---,0.00,VWS V14.01,2013-02-23 01:30:00,
2013-02-22 22:00:00,30.3,24.9,30.34,ESE,112,0.0,0.0,80,0.00,,---,0.00,VWS V14.01,2013-02-23 02:00:00,
2013-02-22 22:30:00,30.4,25.3,30.34,ESE,112,0.0,0.0,81,0.00,,---,0.00,VWS V14.01,2013-02-23 02:30:00,
2013-02-22 23:00:00,30.1,25.0,30.34,ESE,112,0.0,0.0,81,0.00,,---,0.00,VWS V14.01,2013-02-23 03:00:00,
2013-02-22 23:30:00,30.0,25.5,30.33,ESE,112,0.0,0.0,83,0.00,,---,0.00,VWS V14.01,2013-02-23 03:30:00,